createdAt,value
2018-09-02T00:00:07.522Z,99.99
2018-09-02T00:01:07.482Z,99.99
2018-09-02T00:02:07.448Z,99.99
2018-09-02T00:03:07.405Z,99.99
2018-09-02T00:04:07.384Z,99.99
2018-09-02T00:05:07.344Z,99.99
2018-09-02T00:06:07.307Z,99.99
2018-09-02T00:07:07.281Z,99.99
2018-09-02T00:08:07.235Z,99.99
2018-09-02T00:09:07.226Z,99.99
2018-09-02T00:10:07.166Z,99.99
2018-09-02T00:11:07.133Z,99.99
2018-09-02T00:12:07.105Z,99.99
2018-09-02T00:13:07.063Z,99.99
2018-09-02T00:14:07.055Z,99.99
2018-09-02T00:15:07.024Z,99.99
2018-09-02T00:16:06.969Z,99.99
2018-09-02T00:17:06.918Z,99.99
2018-09-02T00:18:06.884Z,99.99
2018-09-02T00:19:06.852Z,99.99
2018-09-02T00:20:06.815Z,99.99
2018-09-02T00:21:06.875Z,99.99
2018-09-02T00:22:06.753Z,99.99
2018-09-02T00:23:06.730Z,99.99
2018-09-02T00:24:06.695Z,99.99
2018-09-02T00:25:06.710Z,99.99
2018-09-02T00:26:06.614Z,99.99
2018-09-02T00:27:06.591Z,99.99
2018-09-02T00:28:06.548Z,99.99
2018-09-02T00:29:06.511Z,99.99
2018-09-02T00:30:06.475Z,99.99
2018-09-02T00:31:06.451Z,98.00
2018-09-02T00:32:06.403Z,99.52
2018-09-02T00:33:06.402Z,99.99
2018-09-02T00:34:06.335Z,99.99
2018-09-02T00:35:06.295Z,99.99
2018-09-02T00:36:06.272Z,99.99
2018-09-02T00:37:06.237Z,99.99
2018-09-02T00:38:06.202Z,99.99
2018-09-02T00:39:06.163Z,99.99
2018-09-02T00:40:06.129Z,97.80
2018-09-02T00:41:06.093Z,98.38
2018-09-02T00:42:06.064Z,99.99
2018-09-02T00:43:06.007Z,99.99
2018-09-02T00:44:05.979Z,99.99
2018-09-02T00:45:05.952Z,99.99
2018-09-02T00:46:05.915Z,99.99
2018-09-02T00:47:05.884Z,99.99
2018-09-02T00:48:05.850Z,99.99
2018-09-02T00:49:05.835Z,99.99
2018-09-02T00:50:05.772Z,99.99
2018-09-02T00:51:05.734Z,99.99
2018-09-02T00:52:05.713Z,99.99
2018-09-02T00:53:05.669Z,99.99
2018-09-02T00:54:05.723Z,99.91
2018-09-02T00:55:05.606Z,99.99
2018-09-02T00:56:05.571Z,97.71
2018-09-02T00:57:05.527Z,99.99
2018-09-02T00:58:05.501Z,94.45
2018-09-02T00:59:05.508Z,97.71
2018-09-02T01:00:05.432Z,94.65
2018-09-02T01:01:05.389Z,95.79
2018-09-02T01:02:05.358Z,96.94
2018-09-02T01:03:05.320Z,99.99
2018-09-02T01:04:05.281Z,99.99
2018-09-02T01:05:05.244Z,99.99
2018-09-02T01:06:05.230Z,99.99
2018-09-02T01:07:05.186Z,99.99
2018-09-02T01:08:05.159Z,99.99
2018-09-02T01:09:05.144Z,99.99
2018-09-02T01:10:05.076Z,99.99
2018-09-02T01:11:05.047Z,99.99
2018-09-02T01:12:05.007Z,99.99
2018-09-02T01:13:04.985Z,99.99
2018-09-02T01:14:04.951Z,99.99
2018-09-02T01:15:04.898Z,99.99
2018-09-02T01:16:04.891Z,99.99
2018-09-02T01:17:04.845Z,99.99
2018-09-02T01:18:04.792Z,99.99
2018-09-02T01:19:04.782Z,99.99
2018-09-02T01:20:04.731Z,99.99
2018-09-02T01:21:04.682Z,99.99
2018-09-02T01:22:04.665Z,99.99
2018-09-02T01:23:04.638Z,99.99
2018-09-02T01:24:04.584Z,99.99
2018-09-02T01:25:04.548Z,99.99
2018-09-02T01:26:04.567Z,99.99
2018-09-02T01:27:04.480Z,99.99
2018-09-02T01:28:04.444Z,99.99
2018-09-02T01:29:04.518Z,99.99
2018-09-02T01:30:04.368Z,99.99
2018-09-02T01:31:04.335Z,99.99
2018-09-02T01:32:04.310Z,99.99
2018-09-02T01:33:04.264Z,99.99
2018-09-02T01:34:04.242Z,99.99
2018-09-02T01:35:04.204Z,99.99
2018-09-02T01:36:04.190Z,99.99
2018-09-02T01:37:04.135Z,99.99
2018-09-02T01:38:04.096Z,99.99
2018-09-02T01:39:04.066Z,99.99
2018-09-02T01:40:04.022Z,99.99
2018-09-02T01:41:03.987Z,99.99
2018-09-02T01:42:03.950Z,99.99
2018-09-02T01:43:03.936Z,99.99
2018-09-02T01:44:03.884Z,99.99
2018-09-02T01:45:03.917Z,99.99
2018-09-02T01:46:03.812Z,99.99
2018-09-02T01:47:03.775Z,99.99
2018-09-02T01:48:03.781Z,99.99
2018-09-02T01:49:03.710Z,99.99
2018-09-02T01:50:03.698Z,99.99
2018-09-02T01:51:03.648Z,99.99
2018-09-02T01:52:03.599Z,99.99
2018-09-02T01:53:03.576Z,99.99
2018-09-02T01:54:03.538Z,99.99
2018-09-02T01:55:03.617Z,99.99
2018-09-02T01:56:03.513Z,99.99
2018-09-02T01:57:03.427Z,99.99
2018-09-02T01:58:03.391Z,99.99
2018-09-02T01:59:03.364Z,99.99
2018-09-02T02:00:03.341Z,99.99
2018-09-02T02:01:03.301Z,99.99
2018-09-02T02:02:03.260Z,99.99
2018-09-02T02:03:03.223Z,99.99
2018-09-02T02:04:03.185Z,99.99
2018-09-02T02:05:03.269Z,99.99
2018-09-02T02:06:03.111Z,99.99
2018-09-02T02:07:03.080Z,99.05
2018-09-02T02:08:03.085Z,96.84
2018-09-02T02:09:03.005Z,95.51
2018-09-02T02:10:02.997Z,93.30
2018-09-02T02:11:02.954Z,91.20
2018-09-02T02:12:02.907Z,91.87
2018-09-02T02:13:02.880Z,90.15
2018-09-02T02:14:02.889Z,88.23
2018-09-02T02:15:02.823Z,82.87
2018-09-02T02:16:02.777Z,84.59
2018-09-02T02:17:02.727Z,83.26
2018-09-02T02:18:02.704Z,82.59
2018-09-02T02:19:02.681Z,81.73
2018-09-02T02:20:02.702Z,78.38
2018-09-02T02:21:02.590Z,73.46
2018-09-02T02:22:02.563Z,70.68
2018-09-02T02:23:02.525Z,70.87
2018-09-02T02:24:02.501Z,70.87
2018-09-02T02:25:02.572Z,71.83
2018-09-02T02:26:02.412Z,72.22
2018-09-02T02:27:02.394Z,72.02
2018-09-02T02:28:02.342Z,70.40
2018-09-02T02:29:02.305Z,71.36
2018-09-02T02:30:02.272Z,71.16
2018-09-02T02:31:02.235Z,71.83
2018-09-02T02:32:02.226Z,71.55
2018-09-02T02:33:02.163Z,70.21
2018-09-02T02:34:02.132Z,71.45
2018-09-02T02:35:02.093Z,74.04
2018-09-02T02:36:02.062Z,73.27
2018-09-02T02:37:02.094Z,72.31
2018-09-02T02:38:01.989Z,71.45
2018-09-02T02:39:01.985Z,72.41
2018-09-02T02:40:02.017Z,69.64
2018-09-02T02:41:01.888Z,73.46
2018-09-02T02:42:01.921Z,71.36
2018-09-02T02:43:01.813Z,70.87
2018-09-02T02:44:01.782Z,72.50
2018-09-02T02:45:01.736Z,71.26
2018-09-02T02:46:01.705Z,72.60
2018-09-02T02:47:01.668Z,74.04
2018-09-02T02:48:01.638Z,74.04
2018-09-02T02:49:01.616Z,74.70
2018-09-02T02:50:01.560Z,76.33
2018-09-02T02:51:01.557Z,76.52
2018-09-02T02:52:01.494Z,72.41
2018-09-02T02:53:01.460Z,74.04
2018-09-02T02:54:01.436Z,76.90
2018-09-02T02:55:01.403Z,79.10
2018-09-02T02:56:01.369Z,77.38
2018-09-02T02:57:01.322Z,77.48
2018-09-02T02:58:01.282Z,75.79
2018-09-02T02:59:01.321Z,80.35
2018-09-02T03:00:01.209Z,80.10
2018-09-02T03:01:01.182Z,80.87
2018-09-02T03:02:01.142Z,83.26
2018-09-02T03:03:01.209Z,83.40
2018-09-02T03:04:01.089Z,80.96
2018-09-02T03:05:01.037Z,76.52
2018-09-02T03:06:01.068Z,79.81
2018-09-02T03:07:00.972Z,77.13
2018-09-02T03:08:00.949Z,76.56
2018-09-02T03:09:00.895Z,76.23
2018-09-02T03:10:00.851Z,76.14
2018-09-02T03:11:00.844Z,76.14
2018-09-02T03:12:00.801Z,76.52
2018-09-02T03:13:00.753Z,73.50
2018-09-02T03:14:00.739Z,71.55
2018-09-02T03:15:00.674Z,73.46
2018-09-02T03:16:00.669Z,73.08
2018-09-02T03:17:00.603Z,64.47
2018-09-02T03:18:00.570Z,64.47
2018-09-02T03:19:00.541Z,64.75
2018-09-02T03:20:00.509Z,65.71
2018-09-02T03:21:00.469Z,64.95
2018-09-02T03:22:00.436Z,66.09
2018-09-02T03:23:00.404Z,66.76
2018-09-02T03:24:00.370Z,68.58
2018-09-02T03:25:00.331Z,60.16
2018-09-02T03:26:00.328Z,63.23
2018-09-02T03:27:00.252Z,59.78
2018-09-02T03:28:00.241Z,56.05
2018-09-02T03:29:00.195Z,52.70
2018-09-02T03:30:00.164Z,52.22
2018-09-02T03:31:00.171Z,53.66
2018-09-02T03:32:00.100Z,51.75
2018-09-02T03:33:00.057Z,49.07
2018-09-02T03:34:00.010Z,50.89
2018-09-02T03:34:59.971Z,46.48
2018-09-02T03:35:59.964Z,45.34
2018-09-02T03:36:59.897Z,44.67
2018-09-02T03:37:59.864Z,42.83
2018-09-02T03:38:59.827Z,39.69
2018-09-02T03:39:59.806Z,41.58
2018-09-02T03:40:59.750Z,40.34
2018-09-02T03:41:59.735Z,35.75
2018-09-02T03:42:59.711Z,34.42
2018-09-02T03:43:59.650Z,36.04
2018-09-02T03:44:59.621Z,36.04
2018-09-02T03:45:59.575Z,33.75
2018-09-02T03:46:59.550Z,32.79
2018-09-02T03:47:59.507Z,32.12
2018-09-02T03:48:59.474Z,29.54
2018-09-02T03:49:59.452Z,29.35
2018-09-02T03:50:59.405Z,28.58
2018-09-02T03:51:59.354Z,23.90
2018-09-02T03:52:59.333Z,24.66
2018-09-02T03:53:59.293Z,23.99
2018-09-02T03:54:59.281Z,21.32
2018-09-02T03:55:59.236Z,21.03
2018-09-02T03:56:59.173Z,19.79
2018-09-02T03:57:59.155Z,20.07
2018-09-02T03:58:59.117Z,17.59
2018-09-02T03:59:59.065Z,16.92
2018-09-02T04:00:59.029Z,19.02
2018-09-02T04:01:58.997Z,18.83
2018-09-02T04:02:58.966Z,21.51
2018-09-02T04:03:58.926Z,22.47
2018-09-02T04:04:58.899Z,23.42
2018-09-02T04:05:58.860Z,22.66
2018-09-02T04:06:58.850Z,23.52
2018-09-02T04:07:58.781Z,23.23
2018-09-02T04:08:58.754Z,21.89
2018-09-02T04:09:58.709Z,20.26
2018-09-02T04:10:58.672Z,22.75
2018-09-02T04:11:58.653Z,25.71
2018-09-02T04:12:58.605Z,25.24
2018-09-02T04:13:58.565Z,26.76
2018-09-02T04:14:58.533Z,26.48
2018-09-02T04:15:58.492Z,26.76
2018-09-02T04:16:58.448Z,25.62
2018-09-02T04:17:58.417Z,23.80
2018-09-02T04:18:58.379Z,25.43
2018-09-02T04:19:58.350Z,27.15
2018-09-02T04:20:58.322Z,25.33
2018-09-02T04:21:58.277Z,25.71
2018-09-02T04:22:58.247Z,27.25
2018-09-02T04:23:58.255Z,27.82
2018-09-02T04:24:58.182Z,31.07
2018-09-02T04:25:58.129Z,31.45
2018-09-02T04:26:58.089Z,34.99
2018-09-02T04:27:58.062Z,34.70
2018-09-02T04:28:58.023Z,30.49
2018-09-02T04:29:57.991Z,30.69
2018-09-02T04:30:57.942Z,32.03
2018-09-02T04:31:57.911Z,29.83
2018-09-02T04:32:57.888Z,29.83
2018-09-02T04:33:57.844Z,31.55
2018-09-02T04:34:57.815Z,33.36
2018-09-02T04:35:57.778Z,31.74
2018-09-02T04:36:57.734Z,29.73
2018-09-02T04:37:57.712Z,30.78
2018-09-02T04:38:57.662Z,32.79
2018-09-02T04:39:57.638Z,32.70
2018-09-02T04:40:57.590Z,34.51
2018-09-02T04:41:57.575Z,33.46
2018-09-02T04:42:57.525Z,34.22
2018-09-02T04:43:57.485Z,38.43
2018-09-02T04:44:57.473Z,37.19
2018-09-02T04:45:57.401Z,40.82
2018-09-02T04:46:57.375Z,39.39
2018-09-02T04:47:57.336Z,36.04
2018-09-02T04:48:57.301Z,34.42
2018-09-02T04:49:57.265Z,37.76
2018-09-02T04:50:57.218Z,43.50
2018-09-02T04:51:57.199Z,44.17
2018-09-02T04:52:57.153Z,49.23
2018-09-02T04:53:57.128Z,50.09
2018-09-02T04:54:57.095Z,46.94
2018-09-02T04:55:57.050Z,47.80
2018-09-02T04:56:57.035Z,50.29
2018-09-02T04:57:56.978Z,48.85
2018-09-02T04:58:56.949Z,46.84
2018-09-02T04:59:56.918Z,46.84
2018-09-02T05:00:56.883Z,48.09
2018-09-02T05:01:56.858Z,48.28
2018-09-02T05:02:56.806Z,51.05
2018-09-02T05:03:56.828Z,51.24
2018-09-02T05:04:56.807Z,49.33
2018-09-02T05:05:56.754Z,52.58
2018-09-02T05:06:56.661Z,55.07
2018-09-02T05:07:56.643Z,53.16
2018-09-02T05:08:56.628Z,58.03
2018-09-02T05:09:56.553Z,58.12
2018-09-02T05:10:56.512Z,59.75
2018-09-02T05:11:56.496Z,56.69
2018-09-02T05:12:56.456Z,59.11
2018-09-02T05:13:56.450Z,60.33
2018-09-02T05:14:56.370Z,66.83
2018-09-02T05:15:56.361Z,64.25
2018-09-02T05:16:56.311Z,64.72
2018-09-02T05:17:56.257Z,66.96
2018-09-02T05:18:56.211Z,68.01
2018-09-02T05:19:56.190Z,65.04
2018-09-02T05:20:56.175Z,64.85
2018-09-02T05:21:56.124Z,61.12
2018-09-02T05:22:56.074Z,63.70
2018-09-02T05:23:56.047Z,65.90
2018-09-02T05:24:55.993Z,65.14
2018-09-02T05:25:55.976Z,65.33
2018-09-02T05:26:55.918Z,65.33
2018-09-02T05:27:55.896Z,61.12
2018-09-02T05:28:55.851Z,60.83
2018-09-02T05:29:55.840Z,57.68
2018-09-02T05:30:55.829Z,59.30
2018-09-02T05:31:55.763Z,59.20
2018-09-02T05:32:55.789Z,56.05
2018-09-02T05:33:55.704Z,56.12
2018-09-02T05:34:55.643Z,55.96
2018-09-02T05:35:55.632Z,54.14
2018-09-02T05:36:55.580Z,52.80
2018-09-02T05:37:55.527Z,53.28
2018-09-02T05:38:55.497Z,54.33
2018-09-02T05:39:55.541Z,53.34
2018-09-02T05:40:55.437Z,52.77
2018-09-02T05:41:55.397Z,53.25
2018-09-02T05:42:55.368Z,50.79
2018-09-02T05:43:55.338Z,56.12
2018-09-02T05:44:55.282Z,54.21
2018-09-02T05:45:55.238Z,50.21
2018-09-02T05:46:55.225Z,55.38
2018-09-02T05:47:55.175Z,49.26
2018-09-02T05:48:55.156Z,47.16
2018-09-02T05:49:55.154Z,53.34
2018-09-02T05:50:55.079Z,51.93
2018-09-02T05:51:55.054Z,50.60
2018-09-02T05:52:55.003Z,50.09
2018-09-02T05:53:54.983Z,51.15
2018-09-02T05:54:54.935Z,52.22
2018-09-02T05:55:54.889Z,48.18
2018-09-02T05:56:54.857Z,45.91
2018-09-02T05:57:54.813Z,50.95
2018-09-02T05:58:54.784Z,51.17
2018-09-02T05:59:54.746Z,49.33
2018-09-02T06:00:54.718Z,48.85
2018-09-02T06:01:54.676Z,51.05
2018-09-02T06:02:54.742Z,50.57
2018-09-02T06:03:54.623Z,52.10
2018-09-02T06:04:54.566Z,50.95
2018-09-02T06:05:54.543Z,48.02
2018-09-02T06:06:54.518Z,44.67
2018-09-02T06:07:54.468Z,52.39
2018-09-02T06:08:54.438Z,48.88
2018-09-02T06:09:54.398Z,53.53
2018-09-02T06:10:54.363Z,50.98
2018-09-02T06:11:54.324Z,52.13
2018-09-02T06:12:54.292Z,48.88
2018-09-02T06:13:54.246Z,48.11
2018-09-02T06:14:54.210Z,48.30
2018-09-02T06:15:54.202Z,43.43
2018-09-02T06:16:54.152Z,45.43
2018-09-02T06:17:54.118Z,45.72
2018-09-02T06:18:54.067Z,44.29
2018-09-02T06:19:54.036Z,47.25
2018-09-02T06:20:53.992Z,46.96
2018-09-02T06:21:53.963Z,41.32
2018-09-02T06:22:53.936Z,45.24
2018-09-02T06:23:53.895Z,44.00
2018-09-02T06:24:53.858Z,39.22
2018-09-02T06:25:53.822Z,38.26
2018-09-02T06:26:54.035Z,39.79
2018-09-02T06:27:53.757Z,44.86
2018-09-02T06:28:53.713Z,45.34
2018-09-02T06:29:53.701Z,38.83
2018-09-02T06:30:53.655Z,42.66
2018-09-02T06:31:53.608Z,44.57
2018-09-02T06:32:53.698Z,43.23
2018-09-02T06:33:53.620Z,43.71
2018-09-02T06:34:53.529Z,40.08
2018-09-02T06:35:53.513Z,41.80
2018-09-02T06:36:53.427Z,41.22
2018-09-02T06:37:53.412Z,36.33
2018-09-02T06:38:53.350Z,38.74
2018-09-02T06:39:53.340Z,37.76
2018-09-02T06:40:53.285Z,37.76
2018-09-02T06:41:53.255Z,36.80
2018-09-02T06:42:53.213Z,35.66
2018-09-02T06:43:53.174Z,32.31
2018-09-02T06:44:53.143Z,31.26
2018-09-02T06:45:53.197Z,32.50
2018-09-02T06:46:53.061Z,27.05
2018-09-02T06:47:53.038Z,31.55
2018-09-02T06:48:53.006Z,28.68
2018-09-02T06:49:52.963Z,28.58
2018-09-02T06:50:52.923Z,24.76
2018-09-02T06:51:52.906Z,26.57
2018-09-02T06:52:52.868Z,22.27
2018-09-02T06:53:52.860Z,20.36
2018-09-02T06:54:52.793Z,23.42
2018-09-02T06:55:52.749Z,25.52
2018-09-02T06:56:52.704Z,27.25
2018-09-02T06:57:52.662Z,23.71
2018-09-02T06:58:52.631Z,22.56
2018-09-02T06:59:52.598Z,21.41
2018-09-02T07:00:52.577Z,22.27
2018-09-02T07:01:52.551Z,21.61
2018-09-02T07:02:52.488Z,18.93
2018-09-02T07:03:52.461Z,17.11
2018-09-02T07:04:52.453Z,17.02
2018-09-02T07:05:52.528Z,15.87
2018-09-02T07:06:52.359Z,15.67
2018-09-02T07:07:52.358Z,15.87
2018-09-02T07:08:52.273Z,15.30
2018-09-02T07:09:52.245Z,13.95
2018-09-02T07:10:52.229Z,15.39
2018-09-02T07:11:52.207Z,14.24
2018-09-02T07:12:52.149Z,13.29
2018-09-02T07:13:52.123Z,12.33
2018-09-02T07:14:52.073Z,13.48
2018-09-02T07:15:52.038Z,14.34
2018-09-02T07:16:51.999Z,16.16
2018-09-02T07:17:51.952Z,14.62
2018-09-02T07:18:51.957Z,13.09
2018-09-02T07:19:51.942Z,15.10
2018-09-02T07:20:51.843Z,15.58
2018-09-02T07:21:51.798Z,14.15
2018-09-02T07:22:51.764Z,13.76
2018-09-02T07:23:51.768Z,11.09
2018-09-02T07:24:51.717Z,10.23
2018-09-02T07:25:51.664Z,8.89
2018-09-02T07:26:51.662Z,8.51
2018-09-02T07:27:51.630Z,7.45
2018-09-02T07:28:51.541Z,5.64
2018-09-02T07:29:51.515Z,4.87
2018-09-02T07:30:51.510Z,5.93
2018-09-02T07:31:52.885Z,7.84
2018-09-02T07:32:51.477Z,5.73
2018-09-02T07:33:51.379Z,4.30
2018-09-02T07:34:52.857Z,2.96
2018-09-02T07:35:51.310Z,3.72
2018-09-02T07:36:51.268Z,3.15
2018-09-02T07:37:51.237Z,3.15
2018-09-02T07:38:51.257Z,2.96
2018-09-02T07:39:51.150Z,4.49
2018-09-02T07:40:51.116Z,3.82
2018-09-02T07:41:51.073Z,3.34
2018-09-02T07:42:51.060Z,2.10
2018-09-02T07:43:51.039Z,0.85
2018-09-02T07:44:51.783Z,0.57
2018-09-02T07:45:50.927Z,1.43
2018-09-02T07:46:50.904Z,0.00
2018-09-02T07:47:50.892Z,0.00
2018-09-02T07:48:50.831Z,0.00
2018-09-02T07:49:50.792Z,0.00
2018-09-02T07:50:50.746Z,0.00
2018-09-02T07:51:50.714Z,0.57
2018-09-02T07:52:50.710Z,0.00
2018-09-02T07:53:50.663Z,0.76
2018-09-02T07:54:50.614Z,1.81
2018-09-02T07:55:50.593Z,2.58
2018-09-02T07:56:50.552Z,2.96
2018-09-02T07:57:50.492Z,4.78
2018-09-02T07:58:50.527Z,1.53
2018-09-02T07:59:50.429Z,2.10
2018-09-02T08:00:50.413Z,3.92
2018-09-02T08:01:50.421Z,2.87
2018-09-02T08:02:50.416Z,1.15
2018-09-02T08:03:52.055Z,3.34
2018-09-02T08:04:51.225Z,3.53
2018-09-02T08:05:50.200Z,2.48
2018-09-02T08:06:50.192Z,1.43
2018-09-02T08:07:50.143Z,2.58
2018-09-02T08:08:50.098Z,2.87
2018-09-02T08:09:50.084Z,4.30
2018-09-02T08:10:50.088Z,3.82
2018-09-02T08:11:50.061Z,2.58
2018-09-02T08:12:50.266Z,4.97
2018-09-02T08:13:49.929Z,3.06
2018-09-02T08:14:49.933Z,2.10
2018-09-02T08:15:49.857Z,1.81
2018-09-02T08:16:49.837Z,1.81
2018-09-02T08:17:49.785Z,2.10
2018-09-02T08:18:49.750Z,2.20
2018-09-02T08:19:49.761Z,1.62
2018-09-02T08:20:49.698Z,2.10
2018-09-02T08:21:50.056Z,1.62
2018-09-02T08:22:49.610Z,3.44
2018-09-02T08:23:49.560Z,3.06
2018-09-02T08:24:49.538Z,3.06
2018-09-02T08:25:49.525Z,4.68
2018-09-02T08:26:49.468Z,4.78
2018-09-02T08:27:49.530Z,9.18
2018-09-02T08:28:49.429Z,4.59
2018-09-02T08:29:49.346Z,4.49
2018-09-02T08:30:49.299Z,4.68
2018-09-02T08:31:49.281Z,3.06
2018-09-02T08:32:49.315Z,4.30
2018-09-02T08:33:49.881Z,5.16
2018-09-02T08:34:49.171Z,4.78
2018-09-02T08:35:49.149Z,5.45
2018-09-02T08:36:49.125Z,9.18
2018-09-02T08:37:49.071Z,5.07
2018-09-02T08:38:49.090Z,5.74
2018-09-02T08:39:49.013Z,7.56
2018-09-02T08:40:48.956Z,6.02
2018-09-02T08:41:48.902Z,9.66
2018-09-02T08:42:48.883Z,7.93
2018-09-02T08:43:48.846Z,6.41
2018-09-02T08:44:48.837Z,5.55
2018-09-02T08:45:48.770Z,5.64
2018-09-02T08:46:48.739Z,5.07
2018-09-02T08:47:48.716Z,5.55
2018-09-02T08:48:48.691Z,8.70
2018-09-02T08:49:48.651Z,8.99
2018-09-02T08:50:48.630Z,7.84
2018-09-02T08:51:48.557Z,5.93
2018-09-02T08:52:48.512Z,7.37
2018-09-02T08:53:48.492Z,6.41
2018-09-02T08:54:48.438Z,8.61
2018-09-02T08:55:48.418Z,6.70
2018-09-02T08:56:48.382Z,6.88
2018-09-02T08:57:48.338Z,8.99
2018-09-02T08:58:48.302Z,7.27
2018-09-02T08:59:48.254Z,12.82
2018-09-02T09:00:48.239Z,16.17
2018-09-02T09:01:48.289Z,14.16
2018-09-02T09:02:48.173Z,16.74
2018-09-02T09:03:48.127Z,14.55
2018-09-02T09:04:48.112Z,15.12
2018-09-02T09:05:48.061Z,15.41
2018-09-02T09:06:48.373Z,15.89
2018-09-02T09:07:48.226Z,21.35
2018-09-02T09:08:48.181Z,20.87
2018-09-02T09:09:47.908Z,26.62
2018-09-02T09:10:47.878Z,24.80
2018-09-02T09:11:47.842Z,25.46
2018-09-02T09:12:47.808Z,24.89
2018-09-02T09:13:47.795Z,21.54
2018-09-02T09:14:47.741Z,22.69
2018-09-02T09:15:47.720Z,21.06
2018-09-02T09:16:47.756Z,20.49
2018-09-02T09:17:47.632Z,15.12
2018-09-02T09:18:47.618Z,18.19
2018-09-02T09:19:47.616Z,17.52
2018-09-02T09:20:47.525Z,13.98
2018-09-02T09:21:47.479Z,12.63
2018-09-02T09:22:47.539Z,16.75
2018-09-02T09:23:47.429Z,18.09
2018-09-02T09:24:47.384Z,17.23
2018-09-02T09:25:47.492Z,15.59
2018-09-02T09:26:47.344Z,13.02
2018-09-02T09:27:47.293Z,15.22
2018-09-02T09:28:47.246Z,11.30
2018-09-02T09:29:47.225Z,10.33
2018-09-02T09:30:47.189Z,11.29
2018-09-02T09:31:47.145Z,9.66
2018-09-02T09:32:47.096Z,10.05
2018-09-02T09:33:47.063Z,13.20
2018-09-02T09:34:47.021Z,8.80
2018-09-02T09:35:47.009Z,7.08
2018-09-02T09:36:46.959Z,5.07
2018-09-02T09:37:46.915Z,5.26
2018-09-02T09:38:46.880Z,8.81
2018-09-02T09:39:46.842Z,8.81
2018-09-02T09:40:46.822Z,6.51
2018-09-02T09:41:46.770Z,15.89
2018-09-02T09:42:46.744Z,22.78
2018-09-02T09:43:46.737Z,20.29
2018-09-02T09:44:46.698Z,19.34
2018-09-02T09:45:46.656Z,20.58
2018-09-02T09:46:46.603Z,17.33
2018-09-02T09:47:46.590Z,19.35
2018-09-02T09:48:46.593Z,32.17
2018-09-02T09:49:46.505Z,27.38
2018-09-02T09:50:46.475Z,21.26
2018-09-02T09:51:46.417Z,22.70
2018-09-02T09:52:46.411Z,22.13
2018-09-02T09:53:46.364Z,21.36
2018-09-02T09:54:46.382Z,28.34
2018-09-02T09:55:46.332Z,18.57
2018-09-02T09:56:46.496Z,14.46
2018-09-02T09:57:46.266Z,21.74
2018-09-02T09:58:46.210Z,16.38
2018-09-02T09:59:46.134Z,27.39
2018-09-02T10:00:46.108Z,23.27
2018-09-02T10:01:46.091Z,20.29
2018-09-02T10:02:46.040Z,24.80
2018-09-02T10:03:46.050Z,17.61
2018-09-02T10:04:45.969Z,16.08
2018-09-02T10:05:45.925Z,18.86
2018-09-02T10:06:45.898Z,12.93
2018-09-02T10:07:45.846Z,14.65
2018-09-02T10:08:45.874Z,17.14
2018-09-02T10:09:45.777Z,18.58
2018-09-02T10:10:45.748Z,22.13
2018-09-02T10:11:45.757Z,23.66
2018-09-02T10:12:45.671Z,20.78
2018-09-02T10:13:46.144Z,20.40
2018-09-02T10:14:45.613Z,20.02
2018-09-02T10:15:45.588Z,18.96
2018-09-02T10:16:45.725Z,16.19
2018-09-02T10:17:45.508Z,19.54
2018-09-02T10:18:45.484Z,20.21
2018-09-02T10:19:45.431Z,22.13
2018-09-02T10:20:45.412Z,24.62
2018-09-02T10:21:45.416Z,32.09
2018-09-02T10:22:45.322Z,24.33
2018-09-02T10:23:45.307Z,36.49
2018-09-02T10:24:45.516Z,32.28
2018-09-02T10:25:45.248Z,29.22
2018-09-02T10:26:45.208Z,31.13
2018-09-02T10:27:45.204Z,30.18
2018-09-02T10:28:45.153Z,31.51
2018-09-02T10:29:45.126Z,31.90
2018-09-02T10:30:45.071Z,28.92
2018-09-02T10:31:45.014Z,28.06
2018-09-02T10:32:44.993Z,34.39
2018-09-02T10:33:44.959Z,29.98
2018-09-02T10:34:44.928Z,28.26
2018-09-02T10:35:44.876Z,25.00
2018-09-02T10:36:44.949Z,25.77
2018-09-02T10:37:44.822Z,22.32
2018-09-02T10:38:44.788Z,29.69
2018-09-02T10:39:44.747Z,30.08
2018-09-02T10:40:44.695Z,22.51
2018-09-02T10:41:44.748Z,20.69
2018-09-02T10:42:44.743Z,23.85
2018-09-02T10:43:44.597Z,22.51
2018-09-02T10:44:44.554Z,21.36
2018-09-02T10:45:44.557Z,18.20
2018-09-02T10:46:44.516Z,20.12
2018-09-02T10:47:44.459Z,20.21
2018-09-02T10:48:44.437Z,18.58
2018-09-02T10:49:44.434Z,23.66
2018-09-02T10:50:44.382Z,27.11
2018-09-02T10:51:44.398Z,24.43
2018-09-02T10:52:44.288Z,23.47
2018-09-02T10:53:44.363Z,23.85
2018-09-02T10:54:44.260Z,18.49
2018-09-02T10:55:44.177Z,13.98
2018-09-02T10:56:44.160Z,18.49
2018-09-02T10:57:44.113Z,19.35
2018-09-02T10:58:44.070Z,20.69
2018-09-02T10:59:44.142Z,20.78
2018-09-02T11:00:44.023Z,16.00
2018-09-02T11:01:43.996Z,20.59
2018-09-02T11:02:44.013Z,21.65
2018-09-02T11:03:43.910Z,18.49
2018-09-02T11:04:43.964Z,12.93
2018-09-02T11:05:43.836Z,10.53
2018-09-02T11:06:43.863Z,13.41
2018-09-02T11:07:43.865Z,17.43
2018-09-02T11:08:46.534Z,17.33
2018-09-02T11:09:43.928Z,15.23
2018-09-02T11:10:43.923Z,14.17
2018-09-02T11:11:43.854Z,15.61
2018-09-02T11:12:43.573Z,14.56
2018-09-02T11:13:43.732Z,9.67
2018-09-02T11:14:43.525Z,13.51
2018-09-02T11:15:43.488Z,16.66
2018-09-02T11:16:43.610Z,13.12
2018-09-02T11:17:43.419Z,17.24
2018-09-02T11:18:43.370Z,13.31
2018-09-02T11:19:43.360Z,13.02
2018-09-02T11:20:43.331Z,15.23
2018-09-02T11:21:43.284Z,10.35
2018-09-02T11:22:43.251Z,10.82
2018-09-02T11:23:43.230Z,14.94
2018-09-02T11:24:43.171Z,15.71
2018-09-02T11:25:43.130Z,15.80
2018-09-02T11:26:43.105Z,17.05
2018-09-02T11:27:43.056Z,13.21
2018-09-02T11:28:43.102Z,15.13
2018-09-02T11:29:42.981Z,16.00
2018-09-02T11:30:42.939Z,16.09
2018-09-02T11:31:42.926Z,20.78
2018-09-02T11:32:42.895Z,21.45
2018-09-02T11:33:42.876Z,19.16
2018-09-02T11:34:42.813Z,21.26
2018-09-02T11:35:42.816Z,19.06
2018-09-02T11:36:42.745Z,14.75
2018-09-02T11:37:42.702Z,12.74
2018-09-02T11:38:42.669Z,9.67
2018-09-02T11:39:42.775Z,13.89
2018-09-02T11:40:42.603Z,14.56
2018-09-02T11:41:42.612Z,15.13
2018-09-02T11:42:42.651Z,14.56
2018-09-02T11:43:42.493Z,13.51
2018-09-02T11:44:42.466Z,10.25
2018-09-02T11:45:42.477Z,9.00
2018-09-02T11:46:42.480Z,10.25
2018-09-02T11:47:42.391Z,8.91
2018-09-02T11:48:42.347Z,11.11
2018-09-02T11:49:42.285Z,13.12
2018-09-02T11:50:42.255Z,13.12
2018-09-02T11:51:42.239Z,6.32
2018-09-02T11:52:42.206Z,6.32
2018-09-02T11:53:42.152Z,6.99
2018-09-02T11:54:42.117Z,7.47
2018-09-02T11:55:42.094Z,11.40
2018-09-02T11:56:42.061Z,13.70
2018-09-02T11:57:42.020Z,14.17
2018-09-02T11:58:42.048Z,15.52
2018-09-02T11:59:41.946Z,14.37
2018-09-02T12:00:42.001Z,17.53
2018-09-02T12:01:41.888Z,17.05
2018-09-02T12:02:41.849Z,17.62
2018-09-02T12:03:41.856Z,14.27
2018-09-02T12:04:41.844Z,14.27
2018-09-02T12:05:41.753Z,14.65
2018-09-02T12:06:41.727Z,13.31
2018-09-02T12:07:41.670Z,17.91
2018-09-02T12:08:41.629Z,15.90
2018-09-02T12:09:41.593Z,11.97
2018-09-02T12:10:41.556Z,8.43
2018-09-02T12:11:41.602Z,7.47
2018-09-02T12:12:41.581Z,8.72
2018-09-02T12:13:41.492Z,10.44
2018-09-02T12:14:41.515Z,11.97
2018-09-02T12:15:41.390Z,14.46
2018-09-02T12:16:41.554Z,12.27
2018-09-02T12:17:41.398Z,17.54
2018-09-02T12:18:41.414Z,20.03
2018-09-02T12:19:41.247Z,13.80
2018-09-02T12:20:41.214Z,14.09
2018-09-02T12:21:41.178Z,14.09
2018-09-02T12:22:41.134Z,14.47
2018-09-02T12:23:41.115Z,12.27
2018-09-02T12:24:41.106Z,15.72
2018-09-02T12:25:41.037Z,16.77
2018-09-02T12:26:40.996Z,18.49
2018-09-02T12:27:40.963Z,21.37
2018-09-02T12:28:40.948Z,15.33
2018-09-02T12:29:40.906Z,15.05
2018-09-02T12:30:40.913Z,15.33
2018-09-02T12:31:40.914Z,21.47
2018-09-02T12:32:40.834Z,21.47
2018-09-02T12:33:40.762Z,18.21
2018-09-02T12:34:40.755Z,18.78
2018-09-02T12:35:40.700Z,18.22
2018-09-02T12:36:40.679Z,17.35
2018-09-02T12:37:40.745Z,18.89
2018-09-02T12:38:40.584Z,30.38
2018-09-02T12:39:40.544Z,22.24
2018-09-02T12:40:40.525Z,22.42
2018-09-02T12:41:40.485Z,20.23
2018-09-02T12:42:40.453Z,21.00
2018-09-02T12:43:40.485Z,28.46
2018-09-02T12:44:40.422Z,32.49
2018-09-02T12:45:40.359Z,25.97
2018-09-02T12:46:40.336Z,25.20
2018-09-02T12:47:40.350Z,18.30
2018-09-02T12:48:40.244Z,16.96
2018-09-02T12:49:40.239Z,20.12
2018-09-02T12:50:40.187Z,18.69
2018-09-02T12:51:40.390Z,17.06
2018-09-02T12:52:40.132Z,18.70
2018-09-02T12:53:40.067Z,23.67
2018-09-02T12:54:40.044Z,23.38
2018-09-02T12:55:40.006Z,21.67